createdAt,value
2022-09-16T00:00:38.571Z,33.03
2022-09-16T00:01:38.612Z,33.52
2022-09-16T00:02:40.249Z,35.29
2022-09-16T00:03:39.518Z,35.13
2022-09-16T00:04:38.506Z,39.80
2022-09-16T00:05:38.501Z,42.38
2022-09-16T00:06:38.517Z,37.38
2022-09-16T00:07:38.486Z,33.52
2022-09-16T00:08:38.477Z,32.71
2022-09-16T00:09:38.469Z,33.03
2022-09-16T00:10:38.464Z,32.55
2022-09-16T00:11:38.479Z,33.52
2022-09-16T00:12:38.448Z,39.16
2022-09-16T00:13:38.441Z,40.28
2022-09-16T00:14:38.435Z,37.38
2022-09-16T00:15:38.414Z,44.15
2022-09-16T00:16:39.497Z,43.99
2022-09-16T00:17:38.410Z,34.48
2022-09-16T00:18:38.405Z,34.80
2022-09-16T00:19:38.394Z,49.63
2022-09-16T00:20:38.389Z,39.96
2022-09-16T00:21:38.408Z,38.19
2022-09-16T00:22:38.371Z,44.15
2022-09-16T00:23:38.368Z,37.87
2022-09-16T00:24:38.356Z,38.03
2022-09-16T00:25:38.343Z,36.09
2022-09-16T00:26:38.369Z,36.58
2022-09-16T00:27:38.329Z,36.42
2022-09-16T00:28:38.317Z,35.45
2022-09-16T00:29:38.311Z,36.25
2022-09-16T00:30:38.304Z,42.54
2022-09-16T00:31:38.354Z,40.77
2022-09-16T00:32:38.288Z,39.16
2022-09-16T00:33:38.308Z,35.29
2022-09-16T00:34:38.278Z,40.28
2022-09-16T00:35:38.263Z,40.61
2022-09-16T00:36:38.260Z,38.99
2022-09-16T00:37:38.246Z,43.18
2022-09-16T00:38:38.264Z,46.41
2022-09-16T00:39:38.231Z,44.15
2022-09-16T00:40:38.222Z,41.41
2022-09-16T00:41:38.213Z,50.92
2022-09-16T00:42:38.207Z,43.67
2022-09-16T00:43:38.225Z,37.71
2022-09-16T00:44:38.188Z,34.32
2022-09-16T00:45:38.180Z,38.51
2022-09-16T00:46:38.240Z,35.29
2022-09-16T00:47:38.168Z,38.67
2022-09-16T00:48:38.195Z,40.77
2022-09-16T00:49:38.153Z,35.93
2022-09-16T00:50:38.148Z,40.12
2022-09-16T00:51:38.140Z,39.96
2022-09-16T00:52:38.131Z,44.31
2022-09-16T00:53:42.714Z,35.29
2022-09-16T00:54:40.113Z,34.32
2022-09-16T00:55:38.107Z,38.03
2022-09-16T00:56:38.100Z,40.77
2022-09-16T00:57:38.089Z,39.80
2022-09-16T00:58:38.108Z,36.25
2022-09-16T00:59:38.072Z,35.77
2022-09-16T01:00:38.084Z,37.06
2022-09-16T01:01:38.114Z,35.61
2022-09-16T01:02:38.049Z,36.42
2022-09-16T01:03:38.064Z,43.02
2022-09-16T01:04:38.039Z,34.32
2022-09-16T01:05:38.026Z,33.84
2022-09-16T01:06:38.013Z,41.89
2022-09-16T01:07:38.008Z,39.80
2022-09-16T01:08:38.027Z,38.51
2022-09-16T01:09:37.993Z,33.84
2022-09-16T01:10:37.992Z,37.71
2022-09-16T01:11:37.980Z,37.71
2022-09-16T01:12:37.968Z,37.71
2022-09-16T01:13:37.991Z,45.44
2022-09-16T01:14:37.957Z,35.13
2022-09-16T01:15:37.953Z,43.02
2022-09-16T01:16:37.966Z,38.03
2022-09-16T01:17:38.931Z,45.28
2022-09-16T01:18:37.954Z,34.48
2022-09-16T01:19:38.914Z,40.12
2022-09-16T01:20:37.907Z,45.92
2022-09-16T01:21:37.899Z,36.42
2022-09-16T01:22:37.892Z,38.19
2022-09-16T01:23:37.919Z,36.09
2022-09-16T01:24:37.874Z,43.18
2022-09-16T01:25:37.867Z,38.99
2022-09-16T01:26:37.890Z,37.38
2022-09-16T01:27:37.849Z,37.22
2022-09-16T01:28:37.866Z,40.77
2022-09-16T01:29:37.832Z,39.32
2022-09-16T01:30:37.827Z,43.67
2022-09-16T01:31:37.892Z,45.28
2022-09-16T01:32:37.814Z,40.93
2022-09-16T01:33:37.829Z,34.16
2022-09-16T01:34:37.798Z,37.71
2022-09-16T01:35:37.790Z,39.96
2022-09-16T01:36:37.780Z,36.74
2022-09-16T01:37:37.773Z,36.42
2022-09-16T01:38:37.799Z,37.06
2022-09-16T01:39:37.757Z,38.51
2022-09-16T01:40:37.747Z,38.51
2022-09-16T01:41:37.738Z,41.57
2022-09-16T01:42:37.733Z,39.96
2022-09-16T01:43:37.757Z,37.38
2022-09-16T01:44:37.719Z,34.48
2022-09-16T01:45:37.713Z,32.87
2022-09-16T01:46:37.762Z,35.77
2022-09-16T01:47:37.697Z,42.54
2022-09-16T01:48:37.685Z,51.56
2022-09-16T01:49:37.704Z,40.44
2022-09-16T01:50:37.673Z,45.92
2022-09-16T01:51:37.665Z,40.28
2022-09-16T01:52:37.658Z,47.53
2022-09-16T01:53:37.675Z,46.57
2022-09-16T01:54:37.650Z,46.08
2022-09-16T01:55:37.636Z,44.63
2022-09-16T01:56:37.629Z,41.89
2022-09-16T01:57:37.606Z,41.57
2022-09-16T01:58:38.631Z,34.16
2022-09-16T01:59:37.601Z,34.16
2022-09-16T02:00:37.592Z,43.51
2022-09-16T02:01:37.651Z,50.11
2022-09-16T02:02:37.779Z,39.32
2022-09-16T02:03:37.599Z,34.00
2022-09-16T02:04:37.567Z,34.32
2022-09-16T02:05:37.561Z,40.61
2022-09-16T02:06:37.555Z,34.00
2022-09-16T02:07:37.542Z,33.68
2022-09-16T02:08:37.550Z,36.58
2022-09-16T02:09:38.526Z,34.48
2022-09-16T02:10:37.525Z,38.99
2022-09-16T02:11:37.508Z,43.67
2022-09-16T02:12:37.500Z,33.68
2022-09-16T02:13:37.525Z,34.48
2022-09-16T02:14:37.484Z,34.64
2022-09-16T02:15:37.529Z,42.22
2022-09-16T02:16:37.468Z,51.56
2022-09-16T02:17:37.463Z,36.25
2022-09-16T02:18:37.479Z,37.06
2022-09-16T02:19:37.441Z,33.52
2022-09-16T02:20:37.432Z,33.35
2022-09-16T02:21:37.424Z,46.08
2022-09-16T02:22:37.413Z,41.09
2022-09-16T02:23:37.416Z,42.86
2022-09-16T02:24:37.429Z,37.54
2022-09-16T02:25:37.397Z,42.70
2022-09-16T02:26:37.387Z,41.89
2022-09-16T02:27:37.380Z,38.03
2022-09-16T02:28:37.374Z,36.90
2022-09-16T02:29:37.388Z,39.32
2022-09-16T02:30:37.355Z,38.03
2022-09-16T02:31:37.418Z,38.03
2022-09-16T02:32:37.341Z,44.31
2022-09-16T02:33:37.329Z,38.19
2022-09-16T02:34:37.355Z,45.12
2022-09-16T02:35:37.319Z,41.09
2022-09-16T02:36:37.306Z,42.54
2022-09-16T02:37:37.299Z,45.12
2022-09-16T02:38:37.290Z,38.83
2022-09-16T02:39:37.310Z,39.96
2022-09-16T02:40:37.275Z,38.19
2022-09-16T02:41:37.270Z,41.57
2022-09-16T02:42:37.259Z,36.74
2022-09-16T02:43:37.255Z,43.99
2022-09-16T02:44:37.267Z,47.70
2022-09-16T02:45:37.229Z,43.18
2022-09-16T02:46:37.296Z,46.57
2022-09-16T02:47:37.219Z,48.02
2022-09-16T02:48:37.214Z,48.50
2022-09-16T02:49:37.225Z,43.18
2022-09-16T02:50:37.191Z,47.37
2022-09-16T02:51:37.185Z,39.32
2022-09-16T02:52:37.176Z,39.16
2022-09-16T02:53:37.168Z,43.67
2022-09-16T02:54:37.184Z,48.98
2022-09-16T02:55:37.157Z,39.96
2022-09-16T02:56:37.143Z,45.92
2022-09-16T02:57:37.139Z,52.21
2022-09-16T02:58:37.140Z,51.24
2022-09-16T02:59:37.158Z,44.63
2022-09-16T03:00:37.119Z,45.12
2022-09-16T03:01:37.131Z,55.11
2022-09-16T03:02:37.131Z,47.53
2022-09-16T03:03:37.090Z,45.44
2022-09-16T03:04:37.105Z,48.66
2022-09-16T03:05:37.073Z,44.15
2022-09-16T03:06:37.065Z,46.73
2022-09-16T03:07:37.064Z,51.56
2022-09-16T03:08:37.057Z,51.72
2022-09-16T03:09:37.068Z,48.02
2022-09-16T03:10:37.041Z,46.25
2022-09-16T03:11:37.036Z,48.66
2022-09-16T03:12:37.025Z,42.06
2022-09-16T03:13:37.016Z,43.99
2022-09-16T03:14:37.053Z,49.63
2022-09-16T03:15:37.060Z,50.92
2022-09-16T03:16:36.987Z,54.14
2022-09-16T03:17:36.984Z,54.46
2022-09-16T03:18:36.973Z,49.15
2022-09-16T03:19:36.993Z,53.17
2022-09-16T03:20:36.960Z,52.21
2022-09-16T03:21:37.000Z,52.37
2022-09-16T03:22:36.941Z,51.24
2022-09-16T03:23:36.931Z,45.12
2022-09-16T03:24:36.954Z,47.37
2022-09-16T03:25:36.917Z,41.57
2022-09-16T03:26:36.906Z,60.26
2022-09-16T03:27:36.900Z,43.51
2022-09-16T03:28:36.894Z,50.43
2022-09-16T03:29:36.907Z,53.01
2022-09-16T03:30:36.884Z,58.49
2022-09-16T03:31:36.911Z,53.66
2022-09-16T03:32:36.866Z,52.69
2022-09-16T03:33:36.856Z,56.88
2022-09-16T03:34:36.871Z,55.27
2022-09-16T03:35:36.839Z,54.79
2022-09-16T03:36:36.828Z,51.72
2022-09-16T03:37:36.819Z,50.11
2022-09-16T03:38:36.810Z,38.83
2022-09-16T03:39:36.822Z,51.72
2022-09-16T03:40:36.802Z,48.34
2022-09-16T03:41:36.791Z,44.63
2022-09-16T03:42:36.782Z,53.98
2022-09-16T03:43:36.774Z,53.66
2022-09-16T03:44:36.768Z,53.01
2022-09-16T03:45:36.782Z,50.11
2022-09-16T03:46:36.804Z,50.92
2022-09-16T03:47:36.744Z,49.47
2022-09-16T03:48:36.735Z,42.54
2022-09-16T03:49:36.739Z,49.47
2022-09-16T03:50:36.746Z,48.18
2022-09-16T03:51:36.714Z,57.20
2022-09-16T03:52:36.706Z,51.08
2022-09-16T03:53:36.701Z,48.66
2022-09-16T03:54:36.699Z,44.63
2022-09-16T03:55:36.705Z,50.27
2022-09-16T03:56:36.670Z,52.37
2022-09-16T03:57:36.667Z,49.79
2022-09-16T03:58:36.662Z,41.57
2022-09-16T03:59:36.650Z,49.47
2022-09-16T04:00:36.668Z,45.44
2022-09-16T04:01:36.676Z,50.60
2022-09-16T04:02:36.678Z,50.27
2022-09-16T04:03:36.620Z,50.11
2022-09-16T04:04:36.616Z,49.95
2022-09-16T04:05:36.627Z,50.43
2022-09-16T04:06:36.582Z,50.60
2022-09-16T04:07:37.590Z,51.24
2022-09-16T04:08:36.582Z,49.15
2022-09-16T04:09:36.569Z,45.76
2022-09-16T04:10:36.590Z,50.43
2022-09-16T04:11:36.553Z,54.46
2022-09-16T04:12:36.555Z,50.11
2022-09-16T04:13:36.536Z,56.72
2022-09-16T04:14:36.546Z,46.25
2022-09-16T04:15:36.597Z,56.72
2022-09-16T04:16:36.516Z,49.31
2022-09-16T04:17:36.526Z,49.47
2022-09-16T04:18:36.502Z,41.25
2022-09-16T04:19:36.490Z,46.57
2022-09-16T04:20:36.515Z,56.72
2022-09-16T04:21:36.483Z,53.98
2022-09-16T04:22:36.472Z,53.50
2022-09-16T04:23:36.469Z,55.43
2022-09-16T04:24:36.456Z,59.30
2022-09-16T04:25:36.475Z,55.11
2022-09-16T04:26:36.440Z,50.92
2022-09-16T04:27:36.431Z,58.33
2022-09-16T04:28:36.430Z,56.24
2022-09-16T04:29:36.421Z,48.02
2022-09-16T04:30:36.491Z,51.24
2022-09-16T04:31:36.405Z,52.69
2022-09-16T04:32:36.392Z,53.17
2022-09-16T04:33:36.389Z,57.52
2022-09-16T04:34:36.379Z,51.08
2022-09-16T04:35:36.415Z,49.47
2022-09-16T04:36:36.371Z,52.37
2022-09-16T04:37:36.360Z,53.98
2022-09-16T04:38:36.349Z,50.11
2022-09-16T04:39:36.339Z,50.92
2022-09-16T04:40:36.370Z,54.79
2022-09-16T04:41:36.338Z,53.50
2022-09-16T04:42:36.316Z,48.34
2022-09-16T04:43:36.310Z,57.85
2022-09-16T04:44:36.303Z,58.97
2022-09-16T04:45:36.319Z,58.65
2022-09-16T04:46:36.339Z,53.33
2022-09-16T04:47:36.281Z,56.72
2022-09-16T04:48:36.284Z,60.75
2022-09-16T04:49:36.267Z,55.75
2022-09-16T04:50:36.295Z,57.04
2022-09-16T04:51:36.248Z,50.11
2022-09-16T04:52:36.246Z,53.50
2022-09-16T04:53:36.241Z,52.69
2022-09-16T04:54:36.222Z,60.10
2022-09-16T04:55:36.244Z,58.17
2022-09-16T04:56:36.219Z,56.07
2022-09-16T04:57:36.205Z,58.17
2022-09-16T04:58:36.205Z,57.36
2022-09-16T04:59:36.184Z,54.62
2022-09-16T05:00:36.178Z,56.88
2022-09-16T05:01:36.236Z,57.69
2022-09-16T05:02:36.169Z,54.95
2022-09-16T05:03:36.190Z,61.87
2022-09-16T05:04:36.144Z,57.69
2022-09-16T05:05:36.137Z,57.04
2022-09-16T05:06:36.156Z,60.75
2022-09-16T05:07:36.121Z,55.27
2022-09-16T05:08:36.106Z,49.95
2022-09-16T05:09:37.109Z,57.36
2022-09-16T05:10:36.106Z,52.69
2022-09-16T05:11:36.115Z,58.33
2022-09-16T05:12:36.156Z,62.04
2022-09-16T05:13:36.073Z,56.24
2022-09-16T05:14:36.070Z,57.36
2022-09-16T05:15:36.094Z,60.10
2022-09-16T05:16:36.074Z,60.75
2022-09-16T05:17:51.513Z,52.21
2022-09-16T05:18:38.031Z,45.76
2022-09-16T05:19:36.021Z,43.51
2022-09-16T05:20:36.018Z,56.40
2022-09-16T05:21:36.033Z,60.75
2022-09-16T05:22:35.997Z,60.59
2022-09-16T05:23:36.000Z,59.46
2022-09-16T05:24:35.987Z,58.81
2022-09-16T05:25:35.977Z,54.95
2022-09-16T05:26:35.994Z,52.05
2022-09-16T05:27:35.963Z,60.42
2022-09-16T05:28:36.029Z,60.75
2022-09-16T05:29:35.951Z,55.59
2022-09-16T05:30:35.965Z,58.81
2022-09-16T05:31:35.957Z,54.62
2022-09-16T05:32:35.923Z,60.10
2022-09-16T05:33:35.927Z,47.86
2022-09-16T05:34:35.911Z,47.05
2022-09-16T05:35:35.902Z,55.43
2022-09-16T05:36:35.919Z,55.75
2022-09-16T05:37:35.885Z,59.14
2022-09-16T05:38:35.887Z,55.59
2022-09-16T05:39:35.871Z,50.43
2022-09-16T05:40:35.868Z,54.14
2022-09-16T05:41:35.876Z,59.46
2022-09-16T05:42:35.843Z,52.53
2022-09-16T05:43:35.840Z,56.56
2022-09-16T05:44:35.978Z,52.21
2022-09-16T05:45:35.823Z,54.79
2022-09-16T05:46:35.851Z,57.52
2022-09-16T05:47:35.812Z,58.97
2022-09-16T05:48:35.804Z,59.30
2022-09-16T05:49:35.793Z,51.24
2022-09-16T05:50:35.779Z,57.36
2022-09-16T05:51:35.805Z,59.30
2022-09-16T05:52:35.846Z,59.30
2022-09-16T05:53:35.766Z,53.17
2022-09-16T05:54:35.756Z,50.27
2022-09-16T05:55:35.743Z,58.01
2022-09-16T05:56:35.762Z,59.46
2022-09-16T05:57:35.726Z,50.92
2022-09-16T05:58:35.719Z,51.40
2022-09-16T05:59:35.709Z,51.88
2022-09-16T06:00:35.786Z,55.91
2022-09-16T06:01:35.796Z,48.18
2022-09-16T06:02:35.797Z,47.70
2022-09-16T06:03:36.678Z,54.79
2022-09-16T06:04:35.666Z,49.79
2022-09-16T06:05:35.666Z,59.14
2022-09-16T06:06:35.683Z,51.56
2022-09-16T06:07:35.639Z,50.43
2022-09-16T06:08:35.647Z,51.40
2022-09-16T06:09:35.619Z,56.88
2022-09-16T06:10:36.622Z,57.36
2022-09-16T06:11:35.638Z,56.40
2022-09-16T06:12:35.606Z,45.60
2022-09-16T06:13:35.596Z,54.46
2022-09-16T06:14:35.596Z,48.50
2022-09-16T06:15:35.615Z,47.05
2022-09-16T06:16:35.660Z,48.34
2022-09-16T06:17:35.597Z,53.01
2022-09-16T06:18:35.557Z,49.95
2022-09-16T06:19:35.556Z,39.96
2022-09-16T06:20:35.543Z,51.08
2022-09-16T06:21:35.566Z,44.96
2022-09-16T06:22:35.536Z,47.70
2022-09-16T06:23:35.522Z,41.09
2022-09-16T06:24:35.520Z,43.18
2022-09-16T06:25:35.511Z,51.08
2022-09-16T06:26:35.532Z,47.05
2022-09-16T06:27:35.491Z,53.66
2022-09-16T06:28:35.491Z,50.11
2022-09-16T06:29:35.482Z,51.08
2022-09-16T06:30:35.511Z,48.34
2022-09-16T06:31:35.482Z,48.34
2022-09-16T06:32:35.540Z,47.53
2022-09-16T06:33:35.448Z,50.11
2022-09-16T06:34:35.445Z,51.56
2022-09-16T06:35:35.434Z,49.95
2022-09-16T06:36:35.458Z,53.33
2022-09-16T06:37:35.420Z,48.34
2022-09-16T06:38:35.409Z,53.01
2022-09-16T06:39:35.403Z,51.56
2022-09-16T06:40:35.449Z,49.31
2022-09-16T06:41:35.424Z,49.63
2022-09-16T06:42:35.384Z,50.76
2022-09-16T06:43:35.372Z,48.82
2022-09-16T06:44:35.402Z,50.60
2022-09-16T06:45:35.355Z,49.63
2022-09-16T06:46:35.371Z,58.49
2022-09-16T06:47:35.346Z,53.33
2022-09-16T06:48:35.410Z,45.12
2022-09-16T06:49:35.331Z,49.15
2022-09-16T06:50:35.321Z,45.28
2022-09-16T06:51:36.195Z,45.12
2022-09-16T06:52:35.305Z,44.96
2022-09-16T06:53:35.298Z,43.99
2022-09-16T06:54:35.289Z,56.88
2022-09-16T06:55:35.284Z,51.08
2022-09-16T06:56:35.302Z,46.57
2022-09-16T06:57:35.263Z,43.67
2022-09-16T06:58:35.256Z,55.59
2022-09-16T06:59:35.252Z,50.11
2022-09-16T07:00:35.238Z,43.67
2022-09-16T07:01:35.324Z,50.92
2022-09-16T07:02:35.243Z,45.60
2022-09-16T07:03:35.213Z,47.53
2022-09-16T07:04:35.277Z,45.12
2022-09-16T07:05:36.203Z,45.28
2022-09-16T07:07:08.611Z,54.62
2022-09-16T07:07:37.185Z,49.31
2022-09-16T07:08:35.178Z,48.50
2022-09-16T07:09:35.171Z,48.34
2022-09-16T07:10:35.161Z,47.86
2022-09-16T07:11:35.182Z,52.37
2022-09-16T07:12:35.153Z,49.63
2022-09-16T07:13:35.133Z,53.01
2022-09-16T07:14:35.118Z,51.08
2022-09-16T07:15:50.913Z,52.05
2022-09-16T07:16:37.194Z,50.43
2022-09-16T07:17:35.111Z,49.95
2022-09-16T07:18:35.104Z,50.11
2022-09-16T07:19:35.089Z,48.34
2022-09-16T07:20:35.160Z,47.53
2022-09-16T07:21:35.097Z,48.66
2022-09-16T07:22:35.072Z,51.72
2022-09-16T07:23:35.068Z,47.86
2022-09-16T07:24:35.058Z,46.41
2022-09-16T07:25:35.966Z,47.86
2022-09-16T07:26:36.063Z,51.40
2022-09-16T07:27:35.027Z,48.82
2022-09-16T07:28:35.045Z,41.57
2022-09-16T07:29:35.010Z,42.06
2022-09-16T07:30:35.049Z,51.08
2022-09-16T07:31:35.028Z,50.11
2022-09-16T07:32:34.986Z,49.47
2022-09-16T07:33:34.982Z,44.96
2022-09-16T07:34:34.972Z,44.47
2022-09-16T07:35:34.967Z,49.79
2022-09-16T07:36:35.104Z,49.63
2022-09-16T07:37:36.489Z,46.57
2022-09-16T07:38:34.936Z,53.82
2022-09-16T07:39:35.935Z,49.47
2022-09-16T07:40:34.979Z,43.51
2022-09-16T07:41:34.924Z,48.66
2022-09-16T07:42:34.938Z,52.85
2022-09-16T07:43:34.918Z,48.50
2022-09-16T07:44:34.899Z,50.43
2022-09-16T07:45:34.973Z,47.37
2022-09-16T07:46:34.885Z,51.40
2022-09-16T07:47:34.944Z,47.86
2022-09-16T07:48:35.485Z,45.28
2022-09-16T07:49:35.881Z,49.63
2022-09-16T07:50:34.849Z,51.08
2022-09-16T07:51:34.848Z,43.34
2022-09-16T07:52:35.005Z,48.50
2022-09-16T07:53:34.838Z,51.08
2022-09-16T07:54:34.826Z,44.31
2022-09-16T07:55:34.813Z,45.28
2022-09-16T07:56:34.803Z,47.37
2022-09-16T07:57:34.824Z,47.05
2022-09-16T07:58:34.791Z,53.17
2022-09-16T07:59:34.786Z,47.53
2022-09-16T08:00:35.783Z,48.34
2022-09-16T08:01:35.015Z,47.53
2022-09-16T08:02:34.831Z,44.79
2022-09-16T08:03:34.760Z,51.40
2022-09-16T08:04:34.749Z,47.86
2022-09-16T08:05:34.736Z,46.08
2022-09-16T08:06:34.737Z,46.41
2022-09-16T08:07:34.758Z,49.63
2022-09-16T08:08:34.794Z,45.76
2022-09-16T08:09:38.519Z,46.73
2022-09-16T08:10:36.699Z,51.08
2022-09-16T08:11:34.693Z,51.08
2022-09-16T08:12:34.713Z,47.05
2022-09-16T08:13:34.682Z,48.50
2022-09-16T08:14:34.675Z,46.89
2022-09-16T08:15:34.683Z,48.02
2022-09-16T08:16:34.705Z,46.08
2022-09-16T08:17:34.684Z,49.79
2022-09-16T08:18:34.637Z,51.40
2022-09-16T08:19:35.641Z,45.12
2022-09-16T08:20:34.668Z,45.12
2022-09-16T08:21:34.617Z,49.47
2022-09-16T08:22:34.654Z,51.88
2022-09-16T08:23:34.602Z,44.31
2022-09-16T08:24:34.676Z,46.73
2022-09-16T08:25:34.594Z,51.56
2022-09-16T08:26:34.578Z,50.11
2022-09-16T08:27:34.593Z,57.04
2022-09-16T08:28:45.156Z,49.63
2022-09-16T08:29:36.558Z,48.34
2022-09-16T08:30:34.547Z,48.82
2022-09-16T08:31:34.609Z,50.60
2022-09-16T08:32:34.561Z,50.92
2022-09-16T08:33:34.523Z,51.88
2022-09-16T08:34:34.516Z,48.18
2022-09-16T08:35:34.519Z,51.24
2022-09-16T08:36:34.511Z,46.73
2022-09-16T08:37:34.521Z,48.34
2022-09-16T08:38:34.491Z,52.85
2022-09-16T08:39:34.489Z,53.50
2022-09-16T08:40:34.559Z,52.69
2022-09-16T08:41:34.469Z,50.27
2022-09-16T08:42:34.498Z,48.98
2022-09-16T08:43:34.452Z,52.37
2022-09-16T08:44:34.471Z,52.05
2022-09-16T08:45:34.505Z,50.76
2022-09-16T08:46:34.433Z,48.02
2022-09-16T08:47:34.466Z,49.47
2022-09-16T08:48:34.409Z,54.46
2022-09-16T08:49:35.419Z,48.34
2022-09-16T08:50:34.402Z,42.54
2022-09-16T08:51:34.397Z,40.93
2022-09-16T08:52:34.408Z,50.60
2022-09-16T08:53:34.387Z,47.37
2022-09-16T08:54:34.413Z,48.82
2022-09-16T08:55:34.368Z,47.53
2022-09-16T08:56:34.451Z,48.50
2022-09-16T08:57:34.378Z,49.79
2022-09-16T08:58:34.345Z,51.72
2022-09-16T08:59:34.337Z,44.96
2022-09-16T09:00:34.324Z,49.79
2022-09-16T09:01:34.585Z,52.85
2022-09-16T09:02:34.711Z,50.60
2022-09-16T09:03:34.303Z,46.08
2022-09-16T09:04:34.303Z,47.05
2022-09-16T09:05:34.287Z,49.63
2022-09-16T09:06:34.280Z,52.69
2022-09-16T09:07:34.299Z,51.40
2022-09-16T09:08:34.265Z,46.25
2022-09-16T09:09:34.264Z,48.66
2022-09-16T09:10:34.265Z,49.31
2022-09-16T09:11:34.815Z,51.08
2022-09-16T09:12:35.418Z,52.21
2022-09-16T09:13:34.229Z,47.86
2022-09-16T09:14:34.224Z,48.18
2022-09-16T09:15:34.214Z,48.66
2022-09-16T09:16:34.253Z,52.69
2022-09-16T09:17:37.147Z,49.15
2022-09-16T09:18:36.211Z,50.27
2022-09-16T09:19:34.185Z,49.95
2022-09-16T09:20:34.186Z,48.66
2022-09-16T09:21:34.196Z,49.15
2022-09-16T09:22:34.166Z,50.11
2022-09-16T09:23:34.181Z,52.85
2022-09-16T09:24:34.166Z,49.95
2022-09-16T09:25:34.138Z,51.08
2022-09-16T09:26:34.136Z,56.24
2022-09-16T09:27:34.128Z,48.82
2022-09-16T09:28:34.234Z,49.47
2022-09-16T09:29:34.110Z,53.33
2022-09-16T09:30:34.105Z,53.66
2022-09-16T09:31:34.199Z,51.56
2022-09-16T09:32:46.326Z,53.66
2022-09-16T09:33:46.030Z,52.21
2022-09-16T09:34:39.607Z,51.08
2022-09-16T09:35:35.069Z,49.63
2022-09-16T09:36:34.062Z,48.82
2022-09-16T09:37:34.050Z,44.47
2022-09-16T09:38:34.084Z,48.34
2022-09-16T09:39:34.035Z,49.31
2022-09-16T09:40:34.104Z,50.43
2022-09-16T09:41:34.029Z,49.15
2022-09-16T09:42:34.015Z,50.60
2022-09-16T09:43:34.050Z,52.69
2022-09-16T09:44:34.082Z,50.60
2022-09-16T09:45:34.997Z,50.60
2022-09-16T09:46:34.039Z,49.95
2022-09-16T09:47:33.974Z,48.50
2022-09-16T09:48:33.993Z,49.95
2022-09-16T09:49:33.984Z,49.15
2022-09-16T09:50:33.953Z,50.92
2022-09-16T09:51:33.940Z,51.56
2022-09-16T09:52:33.942Z,52.85
2022-09-16T09:53:33.954Z,51.88
2022-09-16T09:54:33.953Z,50.27
2022-09-16T09:55:33.971Z,49.47
2022-09-16T09:56:33.904Z,49.31
2022-09-16T09:57:33.895Z,52.53
2022-09-16T09:58:33.923Z,51.72
2022-09-16T09:59:33.883Z,54.14
2022-09-16T10:00:34.033Z,52.05
2022-09-16T10:01:33.871Z,50.76
2022-09-16T10:02:33.861Z,47.86
2022-09-16T10:03:33.873Z,50.11
2022-09-16T10:04:33.844Z,49.63
2022-09-16T10:05:33.839Z,52.85
2022-09-16T10:06:33.829Z,51.24
2022-09-16T10:07:33.825Z,50.27
2022-09-16T10:08:33.839Z,52.85
2022-09-16T10:09:33.814Z,50.92
2022-09-16T10:10:33.819Z,51.24
2022-09-16T10:11:33.792Z,54.62
2022-09-16T10:12:33.786Z,43.67
2022-09-16T10:13:33.800Z,49.31
2022-09-16T10:14:33.774Z,49.63
2022-09-16T10:15:33.761Z,53.17
2022-09-16T10:16:33.935Z,45.76
2022-09-16T10:17:33.744Z,47.70
2022-09-16T10:18:33.763Z,48.02
2022-09-16T10:19:33.730Z,53.01
2022-09-16T10:20:33.723Z,51.56
2022-09-16T10:21:33.732Z,52.69
2022-09-16T10:22:33.708Z,53.98
2022-09-16T10:23:33.725Z,50.11
2022-09-16T10:24:33.688Z,49.63
2022-09-16T10:25:33.688Z,49.31
2022-09-16T10:26:33.672Z,48.82
2022-09-16T10:27:33.662Z,49.79
2022-09-16T10:28:33.681Z,48.66
2022-09-16T10:29:33.650Z,47.21
2022-09-16T10:30:33.644Z,51.56
2022-09-16T10:31:34.628Z,50.60
2022-09-16T10:32:34.713Z,49.63
2022-09-16T10:33:33.643Z,49.63
2022-09-16T10:34:33.613Z,45.76
2022-09-16T10:35:33.603Z,49.47
2022-09-16T10:36:33.597Z,46.08
2022-09-16T10:37:33.587Z,50.60
2022-09-16T10:38:33.602Z,44.96
2022-09-16T10:39:33.574Z,48.34
2022-09-16T10:40:33.625Z,46.89
2022-09-16T10:41:33.554Z,49.47
2022-09-16T10:42:33.547Z,51.24
2022-09-16T10:43:33.564Z,48.98
2022-09-16T10:44:33.534Z,47.37
2022-09-16T10:45:33.526Z,50.11
2022-09-16T10:46:33.552Z,53.66
2022-09-16T10:47:34.543Z,50.27
2022-09-16T10:48:33.621Z,48.66
2022-09-16T10:49:33.491Z,51.08
2022-09-16T10:50:33.508Z,51.72
2022-09-16T10:51:33.473Z,48.82
2022-09-16T10:52:33.467Z,47.37
2022-09-16T10:53:36.340Z,50.92
2022-09-16T10:54:34.449Z,47.86
2022-09-16T10:55:33.438Z,46.89
2022-09-16T10:56:33.439Z,51.40
2022-09-16T10:57:33.431Z,49.79
2022-09-16T10:58:33.446Z,56.07
2022-09-16T10:59:33.449Z,54.79
2022-09-16T11:00:33.497Z,48.98
2022-09-16T11:01:34.130Z,46.57
2022-09-16T11:02:33.389Z,51.24
2022-09-16T11:03:33.424Z,52.21
2022-09-16T11:04:33.462Z,52.37
2022-09-16T11:05:33.368Z,50.60
2022-09-16T11:06:33.357Z,47.53
2022-09-16T11:07:33.349Z,49.95
2022-09-16T11:08:33.342Z,50.76
2022-09-16T11:09:33.357Z,51.56
2022-09-16T11:10:33.330Z,53.33
2022-09-16T11:11:33.325Z,53.50
2022-09-16T11:12:33.316Z,48.82
2022-09-16T11:13:33.302Z,50.92
2022-09-16T11:14:33.320Z,48.02
2022-09-16T11:15:33.293Z,48.98
2022-09-16T11:16:33.324Z,52.37
2022-09-16T11:17:33.269Z,51.40
2022-09-16T11:18:33.270Z,49.63
2022-09-16T11:19:33.292Z,47.37
2022-09-16T11:20:33.383Z,52.05
2022-09-16T11:21:33.250Z,52.53
2022-09-16T11:22:33.232Z,50.27
2022-09-16T11:23:33.224Z,53.01
2022-09-16T11:24:33.243Z,53.66
2022-09-16T11:25:33.207Z,53.66
2022-09-16T11:26:33.202Z,52.69
2022-09-16T11:27:33.199Z,49.95
2022-09-16T11:28:33.188Z,47.86
2022-09-16T11:29:33.202Z,49.63
2022-09-16T11:30:33.192Z,48.50
2022-09-16T11:31:33.274Z,49.79
2022-09-16T11:32:33.205Z,50.11
2022-09-16T11:33:33.146Z,51.40
2022-09-16T11:34:33.164Z,52.69
2022-09-16T11:35:33.128Z,52.69
2022-09-16T11:36:33.220Z,53.50
2022-09-16T11:37:33.184Z,51.08
2022-09-16T11:38:33.107Z,51.56
2022-09-16T11:39:33.164Z,52.05
2022-09-16T11:40:33.116Z,54.30
2022-09-16T11:41:34.083Z,52.05
2022-09-16T11:42:33.074Z,53.50
2022-09-16T11:43:33.073Z,50.92
2022-09-16T11:44:33.099Z,50.92
2022-09-16T11:45:33.054Z,51.72
2022-09-16T11:46:33.060Z,55.27
2022-09-16T11:47:35.985Z,53.66
2022-09-16T11:48:34.020Z,51.24
2022-09-16T11:49:33.048Z,52.53
2022-09-16T11:50:33.011Z,54.95
2022-09-16T11:51:33.006Z,51.24
2022-09-16T11:52:33.097Z,48.50
2022-09-16T11:53:36.522Z,53.33
2022-09-16T11:54:35.004Z,54.95
2022-09-16T11:55:32.975Z,50.43
2022-09-16T11:56:32.963Z,45.76
2022-09-16T11:57:33.957Z,50.43
2022-09-16T11:58:32.955Z,46.89
2022-09-16T11:59:32.969Z,48.82
2022-09-16T12:00:32.950Z,52.85
2022-09-16T12:01:33.018Z,49.79
2022-09-16T12:02:33.025Z,48.66
2022-09-16T12:03:32.913Z,48.18
2022-09-16T12:04:35.032Z,49.47
2022-09-16T12:05:32.895Z,48.18
2022-09-16T12:06:32.886Z,49.95
2022-09-16T12:07:32.881Z,54.46
2022-09-16T12:08:32.961Z,51.88
2022-09-16T12:09:32.865Z,50.11
2022-09-16T12:10:32.885Z,51.56
2022-09-16T12:11:32.851Z,47.21
2022-09-16T12:12:32.843Z,50.27
2022-09-16T12:13:32.840Z,52.05
2022-09-16T12:14:32.833Z,51.24
2022-09-16T12:15:32.852Z,51.88
2022-09-16T12:16:32.818Z,53.17
2022-09-16T12:17:32.818Z,51.08
2022-09-16T12:18:32.796Z,51.24
2022-09-16T12:19:32.791Z,47.05
2022-09-16T12:20:32.811Z,48.98
2022-09-16T12:21:32.778Z,53.66
2022-09-16T12:22:32.769Z,50.92
2022-09-16T12:23:32.764Z,49.95
2022-09-16T12:24:32.846Z,49.95
2022-09-16T12:25:32.772Z,50.92
2022-09-16T12:26:32.739Z,52.37
2022-09-16T12:27:32.738Z,49.47
2022-09-16T12:28:32.718Z,52.85
2022-09-16T12:29:32.717Z,51.56
2022-09-16T12:30:32.722Z,49.31
2022-09-16T12:31:33.718Z,50.43
2022-09-16T12:32:32.688Z,47.86
2022-09-16T12:33:32.687Z,47.05
2022-09-16T12:34:32.678Z,50.43
2022-09-16T12:35:32.720Z,47.37
2022-09-16T12:36:32.658Z,48.18
2022-09-16T12:37:32.650Z,50.11
2022-09-16T12:38:32.642Z,50.27
2022-09-16T12:39:32.635Z,51.08
2022-09-16T12:40:32.817Z,50.92
2022-09-16T12:41:32.618Z,52.05
2022-09-16T12:42:32.615Z,50.27
2022-09-16T12:43:32.609Z,48.02
2022-09-16T12:44:34.788Z,46.73
2022-09-16T12:45:33.613Z,50.60
2022-09-16T12:46:32.628Z,53.82
2022-09-16T12:47:32.573Z,53.66
2022-09-16T12:48:32.561Z,51.08
2022-09-16T12:49:32.556Z,51.72
2022-09-16T12:50:32.571Z,52.05
2022-09-16T12:51:32.547Z,50.27
2022-09-16T12:52:32.534Z,53.17